sensor_id;sensor_type;location;lat;lon;timestamp;P1;durP1;ratioP1;P2;durP2;ratioP2
4206;SDS011;2117;47.972;7.830;2023-07-09T01:02:10;7.70;;;5.30;;
4206;SDS011;2117;47.972;7.830;2023-07-09T01:04:36;9.63;;;6.00;;
4206;SDS011;2117;47.972;7.830;2023-07-09T01:07:04;7.77;;;5.60;;
4206;SDS011;2117;47.972;7.830;2023-07-09T01:09:29;8.30;;;5.07;;
4206;SDS011;2117;47.972;7.830;2023-07-09T01:11:55;6.77;;;5.33;;
4206;SDS011;2117;47.972;7.830;2023-07-09T01:14:25;10.67;;;5.00;;
4206;SDS011;2117;47.972;7.830;2023-07-09T01:17:09;7.27;;;5.50;;
4206;SDS011;2117;47.972;7.830;2023-07-09T01:19:38;7.10;;;4.80;;
4206;SDS011;2117;47.972;7.830;2023-07-09T01:22:12;7.60;;;4.40;;
4206;SDS011;2117;47.972;7.830;2023-07-09T01:27:11;8.87;;;5.47;;
4206;SDS011;2117;47.972;7.830;2023-07-09T01:29:37;10.67;;;5.80;;
4206;SDS011;2117;47.972;7.830;2023-07-09T01:32:03;6.90;;;5.00;;
4206;SDS011;2117;47.972;7.830;2023-07-09T01:34:29;9.50;;;5.77;;
4206;SDS011;2117;47.972;7.830;2023-07-09T01:36:55;7.10;;;5.37;;
4206;SDS011;2117;47.972;7.830;2023-07-09T01:39:21;6.50;;;4.90;;
4206;SDS011;2117;47.972;7.830;2023-07-09T01:41:47;9.30;;;5.23;;
4206;SDS011;2117;47.972;7.830;2023-07-09T01:44:13;10.47;;;5.60;;
4206;SDS011;2117;47.972;7.830;2023-07-09T01:46:39;8.47;;;5.83;;
4206;SDS011;2117;47.972;7.830;2023-07-09T01:49:07;6.90;;;5.30;;
4206;SDS011;2117;47.972;7.830;2023-07-09T01:51:33;11.90;;;5.13;;
4206;SDS011;2117;47.972;7.830;2023-07-09T01:54:01;7.50;;;5.13;;
4206;SDS011;2117;47.972;7.830;2023-07-09T01:56:27;7.77;;;4.90;;
4206;SDS011;2117;47.972;7.830;2023-07-09T01:58:54;11.67;;;5.30;;
4206;SDS011;2117;47.972;7.830;2023-07-09T02:01:25;7.60;;;4.37;;
4206;SDS011;2117;47.972;7.830;2023-07-09T02:03:54;9.00;;;4.63;;
4206;SDS011;2117;47.972;7.830;2023-07-09T02:06:20;7.83;;;5.27;;
4206;SDS011;2117;47.972;7.830;2023-07-09T02:08:49;8.30;;;5.13;;
4206;SDS011;2117;47.972;7.830;2023-07-09T02:11:14;9.63;;;5.10;;
4206;SDS011;2117;47.972;7.830;2023-07-09T02:13:40;6.40;;;5.10;;
4206;SDS011;2117;47.972;7.830;2023-07-09T02:16:05;7.27;;;4.40;;
4206;SDS011;2117;47.972;7.830;2023-07-09T02:18:31;10.17;;;4.83;;
4206;SDS011;2117;47.972;7.830;2023-07-09T02:20:57;9.00;;;5.17;;
4206;SDS011;2117;47.972;7.830;2023-07-09T02:23:25;8.97;;;4.80;;
4206;SDS011;2117;47.972;7.830;2023-07-09T02:25:52;8.93;;;5.13;;
4206;SDS011;2117;47.972;7.830;2023-07-09T02:28:18;9.90;;;5.30;;
4206;SDS011;2117;47.972;7.830;2023-07-09T02:30:43;6.67;;;4.83;;
4206;SDS011;2117;47.972;7.830;2023-07-09T02:33:09;14.07;;;4.23;;
4206;SDS011;2117;47.972;7.830;2023-07-09T02:35:34;5.20;;;4.50;;
4206;SDS011;2117;47.972;7.830;2023-07-09T02:38:00;8.10;;;5.53;;
4206;SDS011;2117;47.972;7.830;2023-07-09T02:40:26;8.27;;;4.67;;
4206;SDS011;2117;47.972;7.830;2023-07-09T02:42:52;7.57;;;5.20;;
4206;SDS011;2117;47.972;7.830;2023-07-09T02:45:18;8.20;;;4.57;;
4206;SDS011;2117;47.972;7.830;2023-07-09T02:47:43;9.10;;;5.33;;
4206;SDS011;2117;47.972;7.830;2023-07-09T02:50:09;7.90;;;4.77;;
4206;SDS011;2117;47.972;7.830;2023-07-09T02:52:34;12.90;;;5.60;;
4206;SDS011;2117;47.972;7.830;2023-07-09T02:55:00;8.17;;;5.30;;
4206;SDS011;2117;47.972;7.830;2023-07-09T02:57:26;8.97;;;5.17;;
4206;SDS011;2117;47.972;7.830;2023-07-09T02:59:51;11.63;;;5.07;;
4206;SDS011;2117;47.972;7.830;2023-07-09T03:02:17;7.77;;;5.30;;
4206;SDS011;2117;47.972;7.830;2023-07-09T03:04:42;7.67;;;5.37;;
4206;SDS011;2117;47.972;7.830;2023-07-09T03:07:08;8.53;;;4.77;;
4206;SDS011;2117;47.972;7.830;2023-07-09T03:09:33;7.07;;;4.80;;
4206;SDS011;2117;47.972;7.830;2023-07-09T03:11:59;7.80;;;5.20;;
4206;SDS011;2117;47.972;7.830;2023-07-09T03:14:24;12.90;;;4.67;;
4206;SDS011;2117;47.972;7.830;2023-07-09T03:16:50;11.73;;;5.00;;
4206;SDS011;2117;47.972;7.830;2023-07-09T03:19:16;8.80;;;5.53;;
4206;SDS011;2117;47.972;7.830;2023-07-09T03:21:41;7.80;;;4.93;;
4206;SDS011;2117;47.972;7.830;2023-07-09T03:24:07;5.80;;;4.50;;
4206;SDS011;2117;47.972;7.830;2023-07-09T03:26:33;11.53;;;4.83;;
4206;SDS011;2117;47.972;7.830;2023-07-09T03:28:59;7.43;;;4.67;;
4206;SDS011;2117;47.972;7.830;2023-07-09T03:31:24;7.63;;;5.40;;
4206;SDS011;2117;47.972;7.830;2023-07-09T03:33:50;7.93;;;4.50;;
4206;SDS011;2117;47.972;7.830;2023-07-09T03:36:17;8.43;;;5.63;;
4206;SDS011;2117;47.972;7.830;2023-07-09T03:38:44;5.90;;;4.90;;
4206;SDS011;2117;47.972;7.830;2023-07-09T03:41:10;6.90;;;5.30;;
4206;SDS011;2117;47.972;7.830;2023-07-09T03:43:36;7.27;;;4.90;;
4206;SDS011;2117;47.972;7.830;2023-07-09T03:46:01;6.50;;;4.93;;
4206;SDS011;2117;47.972;7.830;2023-07-09T03:48:27;5.20;;;4.23;;
4206;SDS011;2117;47.972;7.830;2023-07-09T03:50:53;7.53;;;5.10;;
4206;SDS011;2117;47.972;7.830;2023-07-09T03:53:18;8.80;;;4.80;;
4206;SDS011;2117;47.972;7.830;2023-07-09T03:55:50;7.47;;;5.03;;
4206;SDS011;2117;47.972;7.830;2023-07-09T03:58:18;11.77;;;5.27;;
4206;SDS011;2117;47.972;7.830;2023-07-09T04:00:43;8.90;;;5.40;;
4206;SDS011;2117;47.972;7.830;2023-07-09T04:03:10;7.63;;;4.57;;
4206;SDS011;2117;47.972;7.830;2023-07-09T04:05:36;7.27;;;5.03;;
4206;SDS011;2117;47.972;7.830;2023-07-09T04:08:02;10.37;;;5.57;;
4206;SDS011;2117;47.972;7.830;2023-07-09T04:10:28;7.10;;;4.70;;
4206;SDS011;2117;47.972;7.830;2023-07-09T04:12:53;9.83;;;5.30;;
4206;SDS011;2117;47.972;7.830;2023-07-09T04:15:19;7.43;;;3.93;;
4206;SDS011;2117;47.972;7.830;2023-07-09T04:17:45;6.57;;;4.47;;
4206;SDS011;2117;47.972;7.830;2023-07-09T04:20:10;7.30;;;4.57;;
4206;SDS011;2117;47.972;7.830;2023-07-09T04:22:36;12.43;;;5.43;;
4206;SDS011;2117;47.972;7.830;2023-07-09T04:25:03;11.30;;;5.17;;
4206;SDS011;2117;47.972;7.830;2023-07-09T04:27:31;6.13;;;4.47;;
4206;SDS011;2117;47.972;7.830;2023-07-09T04:29:56;6.83;;;5.10;;
4206;SDS011;2117;47.972;7.830;2023-07-09T04:32:22;8.40;;;4.77;;
4206;SDS011;2117;47.972;7.830;2023-07-09T04:34:48;9.50;;;4.63;;
4206;SDS011;2117;47.972;7.830;2023-07-09T04:37:14;9.57;;;5.13;;
4206;SDS011;2117;47.972;7.830;2023-07-09T04:39:43;7.63;;;5.23;;
4206;SDS011;2117;47.972;7.830;2023-07-09T04:42:12;6.80;;;4.37;;
4206;SDS011;2117;47.972;7.830;2023-07-09T04:44:41;11.03;;;4.37;;
4206;SDS011;2117;47.972;7.830;2023-07-09T04:47:06;5.67;;;4.73;;
4206;SDS011;2117;47.972;7.830;2023-07-09T04:49:33;7.20;;;4.60;;
4206;SDS011;2117;47.972;7.830;2023-07-09T04:51:59;9.70;;;5.07;;
4206;SDS011;2117;47.972;7.830;2023-07-09T04:54:25;7.13;;;4.50;;
4206;SDS011;2117;47.972;7.830;2023-07-09T04:56:52;8.00;;;4.97;;
4206;SDS011;2117;47.972;7.830;2023-07-09T04:59:18;11.53;;;5.30;;
4206;SDS011;2117;47.972;7.830;2023-07-09T05:01:44;12.33;;;5.20;;
4206;SDS011;2117;47.972;7.830;2023-07-09T05:04:09;6.60;;;5.17;;
4206;SDS011;2117;47.972;7.830;2023-07-09T05:06:35;9.70;;;4.73;;
4206;SDS011;2117;47.972;7.830;2023-07-09T05:09:01;10.77;;;5.47;;
4206;SDS011;2117;47.972;7.830;2023-07-09T05:11:26;9.10;;;5.60;;
4206;SDS011;2117;47.972;7.830;2023-07-09T05:13:52;11.83;;;5.47;;
4206;SDS011;2117;47.972;7.830;2023-07-09T05:16:18;6.77;;;5.27;;
4206;SDS011;2117;47.972;7.830;2023-07-09T05:18:44;9.93;;;6.23;;
4206;SDS011;2117;47.972;7.830;2023-07-09T05:21:10;9.80;;;6.07;;
4206;SDS011;2117;47.972;7.830;2023-07-09T05:23:36;9.43;;;5.63;;
4206;SDS011;2117;47.972;7.830;2023-07-09T05:26:02;11.97;;;6.40;;
4206;SDS011;2117;47.972;7.830;2023-07-09T05:28:28;8.00;;;5.10;;
4206;SDS011;2117;47.972;7.830;2023-07-09T05:30:55;8.90;;;5.33;;
4206;SDS011;2117;47.972;7.830;2023-07-09T05:33:21;7.20;;;5.07;;
4206;SDS011;2117;47.972;7.830;2023-07-09T05:35:47;8.63;;;5.50;;
4206;SDS011;2117;47.972;7.830;2023-07-09T05:38:13;5.73;;;5.20;;
4206;SDS011;2117;47.972;7.830;2023-07-09T05:40:39;7.77;;;5.23;;
4206;SDS011;2117;47.972;7.830;2023-07-09T05:43:06;7.13;;;5.10;;
4206;SDS011;2117;47.972;7.830;2023-07-09T05:45:31;6.17;;;5.07;;
4206;SDS011;2117;47.972;7.830;2023-07-09T05:47:58;6.10;;;5.10;;
4206;SDS011;2117;47.972;7.830;2023-07-09T05:50:24;7.53;;;4.90;;
4206;SDS011;2117;47.972;7.830;2023-07-09T05:52:51;7.83;;;4.10;;
4206;SDS011;2117;47.972;7.830;2023-07-09T05:55:16;10.33;;;5.97;;
4206;SDS011;2117;47.972;7.830;2023-07-09T05:57:42;10.50;;;6.00;;
4206;SDS011;2117;47.972;7.830;2023-07-09T06:00:08;10.80;;;6.03;;
4206;SDS011;2117;47.972;7.830;2023-07-09T06:02:34;11.20;;;5.93;;
4206;SDS011;2117;47.972;7.830;2023-07-09T06:05:00;7.60;;;5.60;;
4206;SDS011;2117;47.972;7.830;2023-07-09T06:07:27;8.40;;;5.20;;
4206;SDS011;2117;47.972;7.830;2023-07-09T06:09:52;6.83;;;5.90;;
4206;SDS011;2117;47.972;7.830;2023-07-09T06:12:18;8.13;;;5.50;;
4206;SDS011;2117;47.972;7.830;2023-07-09T06:14:44;8.07;;;5.80;;
4206;SDS011;2117;47.972;7.830;2023-07-09T06:17:10;7.90;;;5.57;;
4206;SDS011;2117;47.972;7.830;2023-07-09T06:19:36;10.30;;;5.60;;
4206;SDS011;2117;47.972;7.830;2023-07-09T06:22:02;7.20;;;5.70;;
4206;SDS011;2117;47.972;7.830;2023-07-09T06:24:28;10.97;;;4.80;;
4206;SDS011;2117;47.972;7.830;2023-07-09T06:26:53;7.83;;;5.60;;
4206;SDS011;2117;47.972;7.830;2023-07-09T06:29:19;7.47;;;4.90;;
4206;SDS011;2117;47.972;7.830;2023-07-09T06:31:45;8.00;;;5.47;;
4206;SDS011;2117;47.972;7.830;2023-07-09T06:34:10;8.40;;;6.00;;
4206;SDS011;2117;47.972;7.830;2023-07-09T06:36:36;9.77;;;5.17;;
4206;SDS011;2117;47.972;7.830;2023-07-09T06:39:02;9.53;;;5.63;;
4206;SDS011;2117;47.972;7.830;2023-07-09T06:41:28;11.20;;;5.90;;
4206;SDS011;2117;47.972;7.830;2023-07-09T06:43:53;8.07;;;5.90;;
4206;SDS011;2117;47.972;7.830;2023-07-09T06:46:19;13.03;;;6.00;;
4206;SDS011;2117;47.972;7.830;2023-07-09T06:48:45;12.60;;;5.50;;
4206;SDS011;2117;47.972;7.830;2023-07-09T06:51:11;7.73;;;5.30;;
4206;SDS011;2117;47.972;7.830;2023-07-09T06:53:37;10.53;;;5.90;;
4206;SDS011;2117;47.972;7.830;2023-07-09T06:56:04;8.10;;;6.20;;
4206;SDS011;2117;47.972;7.830;2023-07-09T06:58:30;9.07;;;5.80;;
4206;SDS011;2117;47.972;7.830;2023-07-09T07:00:59;7.70;;;5.70;;
4206;SDS011;2117;47.972;7.830;2023-07-09T07:03:28;8.90;;;6.37;;
4206;SDS011;2117;47.972;7.830;2023-07-09T07:05:54;6.27;;;5.67;;
4206;SDS011;2117;47.972;7.830;2023-07-09T07:08:20;7.80;;;5.60;;
4206;SDS011;2117;47.972;7.830;2023-07-09T07:10:54;8.97;;;5.70;;
4206;SDS011;2117;47.972;7.830;2023-07-09T07:13:28;8.13;;;5.93;;
4206;SDS011;2117;47.972;7.830;2023-07-09T07:15:54;9.17;;;5.93;;
4206;SDS011;2117;47.972;7.830;2023-07-09T07:18:20;11.63;;;6.27;;
4206;SDS011;2117;47.972;7.830;2023-07-09T07:20:45;12.53;;;6.67;;
4206;SDS011;2117;47.972;7.830;2023-07-09T07:23:11;7.23;;;6.33;;
4206;SDS011;2117;47.972;7.830;2023-07-09T07:25:37;8.67;;;5.93;;
4206;SDS011;2117;47.972;7.830;2023-07-09T07:28:03;8.80;;;5.70;;
4206;SDS011;2117;47.972;7.830;2023-07-09T07:30:29;9.23;;;6.03;;
4206;SDS011;2117;47.972;7.830;2023-07-09T07:32:55;8.70;;;6.23;;
4206;SDS011;2117;47.972;7.830;2023-07-09T07:35:20;9.50;;;6.53;;
4206;SDS011;2117;47.972;7.830;2023-07-09T07:37:46;7.80;;;5.90;;
4206;SDS011;2117;47.972;7.830;2023-07-09T07:40:12;6.93;;;5.93;;
4206;SDS011;2117;47.972;7.830;2023-07-09T07:42:37;7.57;;;6.03;;
4206;SDS011;2117;47.972;7.830;2023-07-09T07:45:03;13.13;;;5.73;;
4206;SDS011;2117;47.972;7.830;2023-07-09T07:47:29;10.20;;;7.03;;
4206;SDS011;2117;47.972;7.830;2023-07-09T07:49:55;6.57;;;5.73;;
4206;SDS011;2117;47.972;7.830;2023-07-09T07:52:22;8.20;;;6.53;;
4206;SDS011;2117;47.972;7.830;2023-07-09T07:54:48;7.83;;;5.77;;
4206;SDS011;2117;47.972;7.830;2023-07-09T07:57:14;9.40;;;6.73;;
4206;SDS011;2117;47.972;7.830;2023-07-09T07:59:40;8.00;;;6.03;;
4206;SDS011;2117;47.972;7.830;2023-07-09T08:02:06;10.50;;;6.27;;
4206;SDS011;2117;47.972;7.830;2023-07-09T08:04:35;7.07;;;5.87;;
4206;SDS011;2117;47.972;7.830;2023-07-09T08:07:01;7.83;;;6.00;;
4206;SDS011;2117;47.972;7.830;2023-07-09T08:09:27;11.00;;;6.63;;
4206;SDS011;2117;47.972;7.830;2023-07-09T08:11:53;8.73;;;6.13;;
4206;SDS011;2117;47.972;7.830;2023-07-09T08:14:18;9.00;;;6.27;;
4206;SDS011;2117;47.972;7.830;2023-07-09T08:16:44;9.57;;;6.50;;
4206;SDS011;2117;47.972;7.830;2023-07-09T08:19:10;7.50;;;6.50;;
4206;SDS011;2117;47.972;7.830;2023-07-09T08:21:35;8.17;;;6.03;;
4206;SDS011;2117;47.972;7.830;2023-07-09T08:24:01;9.20;;;7.00;;
4206;SDS011;2117;47.972;7.830;2023-07-09T08:26:27;7.87;;;5.90;;
4206;SDS011;2117;47.972;7.830;2023-07-09T08:28:53;12.63;;;5.97;;
4206;SDS011;2117;47.972;7.830;2023-07-09T08:31:19;11.93;;;6.57;;
4206;SDS011;2117;47.972;7.830;2023-07-09T08:33:45;9.70;;;7.63;;
4206;SDS011;2117;47.972;7.830;2023-07-09T08:36:11;9.03;;;5.70;;
4206;SDS011;2117;47.972;7.830;2023-07-09T08:38:37;10.10;;;7.10;;
4206;SDS011;2117;47.972;7.830;2023-07-09T08:43:54;12.17;;;7.30;;
4206;SDS011;2117;47.972;7.830;2023-07-09T08:49:18;8.67;;;7.10;;
4206;SDS011;2117;47.972;7.830;2023-07-09T08:51:55;8.33;;;7.07;;
4206;SDS011;2117;47.972;7.830;2023-07-09T08:54:25;7.93;;;6.70;;
4206;SDS011;2117;47.972;7.830;2023-07-09T08:56:53;9.10;;;7.17;;
4206;SDS011;2117;47.972;7.830;2023-07-09T08:59:20;8.90;;;6.60;;
4206;SDS011;2117;47.972;7.830;2023-07-09T09:01:49;8.90;;;6.13;;
4206;SDS011;2117;47.972;7.830;2023-07-09T09:04:22;10.53;;;7.47;;
4206;SDS011;2117;47.972;7.830;2023-07-09T09:09:42;8.90;;;6.70;;
4206;SDS011;2117;47.972;7.830;2023-07-09T09:12:17;9.90;;;7.03;;
4206;SDS011;2117;47.972;7.830;2023-07-09T09:14:48;9.13;;;7.20;;
4206;SDS011;2117;47.972;7.830;2023-07-09T09:17:29;11.93;;;7.40;;
4206;SDS011;2117;47.972;7.830;2023-07-09T09:19:59;9.77;;;6.60;;
4206;SDS011;2117;47.972;7.830;2023-07-09T09:22:53;12.57;;;8.10;;
4206;SDS011;2117;47.972;7.830;2023-07-09T09:25:35;9.73;;;6.67;;
4206;SDS011;2117;47.972;7.830;2023-07-09T09:28:05;9.63;;;7.20;;
4206;SDS011;2117;47.972;7.830;2023-07-09T09:30:31;10.40;;;7.43;;
4206;SDS011;2117;47.972;7.830;2023-07-09T09:32:57;9.30;;;7.10;;
4206;SDS011;2117;47.972;7.830;2023-07-09T09:38:02;10.00;;;6.90;;
4206;SDS011;2117;47.972;7.830;2023-07-09T09:40:34;7.23;;;6.33;;
4206;SDS011;2117;47.972;7.830;2023-07-09T09:43:01;10.40;;;7.77;;
4206;SDS011;2117;47.972;7.830;2023-07-09T09:45:35;10.60;;;7.07;;
4206;SDS011;2117;47.972;7.830;2023-07-09T09:48:09;6.80;;;5.93;;
4206;SDS011;2117;47.972;7.830;2023-07-09T09:50:52;10.90;;;6.50;;
4206;SDS011;2117;47.972;7.830;2023-07-09T09:53:19;6.80;;;5.77;;
4206;SDS011;2117;47.972;7.830;2023-07-09T09:55:48;14.37;;;7.03;;
4206;SDS011;2117;47.972;7.830;2023-07-09T09:58:16;13.43;;;6.90;;
4206;SDS011;2117;47.972;7.830;2023-07-09T10:00:52;9.00;;;6.53;;
4206;SDS011;2117;47.972;7.830;2023-07-09T10:03:20;9.83;;;7.07;;
4206;SDS011;2117;47.972;7.830;2023-07-09T10:08:27;8.40;;;5.90;;
4206;SDS011;2117;47.972;7.830;2023-07-09T10:11:31;9.27;;;6.43;;
4206;SDS011;2117;47.972;7.830;2023-07-09T10:14:30;10.30;;;5.97;;
4206;SDS011;2117;47.972;7.830;2023-07-09T10:22:57;11.80;;;5.57;;
4206;SDS011;2117;47.972;7.830;2023-07-09T10:25:10;11.17;;;6.60;;
4206;SDS011;2117;47.972;7.830;2023-07-09T10:27:53;7.73;;;5.90;;
4206;SDS011;2117;47.972;7.830;2023-07-09T10:33:12;8.02;;;6.20;;
4206;SDS011;2117;47.972;7.830;2023-07-09T10:35:49;8.05;;;6.05;;
4206;SDS011;2117;47.972;7.830;2023-07-09T10:38:48;10.03;;;7.20;;
4206;SDS011;2117;47.972;7.830;2023-07-09T10:41:15;13.18;;;7.07;;
4206;SDS011;2117;47.972;7.830;2023-07-09T10:44:25;8.20;;;6.47;;
4206;SDS011;2117;47.972;7.830;2023-07-09T10:46:37;7.07;;;5.95;;
4206;SDS011;2117;47.972;7.830;2023-07-09T10:49:05;7.47;;;6.00;;
4206;SDS011;2117;47.972;7.830;2023-07-09T10:51:38;18.38;;;7.05;;
4206;SDS011;2117;47.972;7.830;2023-07-09T10:54:21;11.40;;;6.80;;
4206;SDS011;2117;47.972;7.830;2023-07-09T10:59:53;7.65;;;6.75;;
4206;SDS011;2117;47.972;7.830;2023-07-09T11:02:21;8.85;;;6.60;;
4206;SDS011;2117;47.972;7.830;2023-07-09T11:07:29;8.80;;;6.53;;
4206;SDS011;2117;47.972;7.830;2023-07-09T11:10:21;9.43;;;6.80;;
4206;SDS011;2117;47.972;7.830;2023-07-09T11:13:15;13.68;;;7.15;;
4206;SDS011;2117;47.972;7.830;2023-07-09T11:15:45;7.50;;;5.93;;
4206;SDS011;2117;47.972;7.830;2023-07-09T11:18:21;16.60;;;7.20;;
4206;SDS011;2117;47.972;7.830;2023-07-09T11:20:55;9.35;;;7.40;;
4206;SDS011;2117;47.972;7.830;2023-07-09T11:23:24;10.38;;;6.28;;
4206;SDS011;2117;47.972;7.830;2023-07-09T11:26:09;11.23;;;7.00;;
4206;SDS011;2117;47.972;7.830;2023-07-09T11:28:46;8.88;;;6.03;;
4206;SDS011;2117;47.972;7.830;2023-07-09T11:31:31;6.90;;;6.20;;
4206;SDS011;2117;47.972;7.830;2023-07-09T11:34:08;9.07;;;6.75;;
4206;SDS011;2117;47.972;7.830;2023-07-09T11:36:47;8.23;;;6.80;;
4206;SDS011;2117;47.972;7.830;2023-07-09T11:39:20;9.68;;;7.63;;
4206;SDS011;2117;47.972;7.830;2023-07-09T11:41:54;8.80;;;6.72;;
4206;SDS011;2117;47.972;7.830;2023-07-09T11:44:24;10.02;;;7.03;;
4206;SDS011;2117;47.972;7.830;2023-07-09T11:46:59;9.25;;;7.35;;
4206;SDS011;2117;47.972;7.830;2023-07-09T11:49:52;7.90;;;6.40;;
4206;SDS011;2117;47.972;7.830;2023-07-09T11:52:34;16.10;;;7.40;;
4206;SDS011;2117;47.972;7.830;2023-07-09T11:55:22;9.68;;;7.10;;
4206;SDS011;2117;47.972;7.830;2023-07-09T11:58:04;8.52;;;6.90;;
4206;SDS011;2117;47.972;7.830;2023-07-09T12:00:46;8.43;;;7.32;;
4206;SDS011;2117;47.972;7.830;2023-07-09T12:05:49;8.25;;;6.38;;
4206;SDS011;2117;47.972;7.830;2023-07-09T12:08:17;7.72;;;6.55;;
4206;SDS011;2117;47.972;7.830;2023-07-09T12:10:47;8.93;;;6.80;;
4206;SDS011;2117;47.972;7.830;2023-07-09T12:13:12;10.10;;;7.75;;
4206;SDS011;2117;47.972;7.830;2023-07-09T12:15:39;9.10;;;6.90;;
4206;SDS011;2117;47.972;7.830;2023-07-09T12:18:12;9.55;;;6.97;;
4206;SDS011;2117;47.972;7.830;2023-07-09T12:20:39;7.95;;;7.20;;
4206;SDS011;2117;47.972;7.830;2023-07-09T12:23:20;8.02;;;6.80;;
4206;SDS011;2117;47.972;7.830;2023-07-09T12:25:50;6.82;;;6.13;;
4206;SDS011;2117;47.972;7.830;2023-07-09T12:28:17;8.75;;;7.55;;
4206;SDS011;2117;47.972;7.830;2023-07-09T12:30:45;8.73;;;7.30;;
4206;SDS011;2117;47.972;7.830;2023-07-09T12:33:13;13.70;;;6.90;;
4206;SDS011;2117;47.972;7.830;2023-07-09T12:35:50;7.30;;;6.60;;
4206;SDS011;2117;47.972;7.830;2023-07-09T12:38:23;8.85;;;6.55;;
4206;SDS011;2117;47.972;7.830;2023-07-09T12:40:51;8.98;;;6.40;;
4206;SDS011;2117;47.972;7.830;2023-07-09T12:43:24;12.35;;;6.78;;
4206;SDS011;2117;47.972;7.830;2023-07-09T12:45:52;9.00;;;6.43;;
4206;SDS011;2117;47.972;7.830;2023-07-09T12:48:20;7.80;;;7.03;;
4206;SDS011;2117;47.972;7.830;2023-07-09T12:50:49;7.75;;;6.95;;
4206;SDS011;2117;47.972;7.830;2023-07-09T12:53:17;8.45;;;7.55;;
4206;SDS011;2117;47.972;7.830;2023-07-09T12:55:46;12.77;;;7.15;;
4206;SDS011;2117;47.972;7.830;2023-07-09T12:58:18;10.20;;;7.55;;
4206;SDS011;2117;47.972;7.830;2023-07-09T13:00:49;7.47;;;6.78;;
4206;SDS011;2117;47.972;7.830;2023-07-09T13:03:16;10.18;;;7.45;;
4206;SDS011;2117;47.972;7.830;2023-07-09T13:06:05;9.98;;;7.53;;
4206;SDS011;2117;47.972;7.830;2023-07-09T13:08:54;8.93;;;7.85;;
4206;SDS011;2117;47.972;7.830;2023-07-09T13:11:22;7.15;;;6.45;;
4206;SDS011;2117;47.972;7.830;2023-07-09T13:13:55;9.07;;;7.10;;
4206;SDS011;2117;47.972;7.830;2023-07-09T13:16:24;8.02;;;7.22;;
4206;SDS011;2117;47.972;7.830;2023-07-09T13:18:50;9.80;;;7.22;;
4206;SDS011;2117;47.972;7.830;2023-07-09T13:21:17;15.95;;;7.78;;
4206;SDS011;2117;47.972;7.830;2023-07-09T13:23:43;9.13;;;7.50;;
4206;SDS011;2117;47.972;7.830;2023-07-09T13:26:09;8.38;;;6.43;;
4206;SDS011;2117;47.972;7.830;2023-07-09T13:28:35;8.10;;;6.68;;
4206;SDS011;2117;47.972;7.830;2023-07-09T13:31:07;8.68;;;6.78;;
4206;SDS011;2117;47.972;7.830;2023-07-09T13:33:33;18.45;;;7.28;;
4206;SDS011;2117;47.972;7.830;2023-07-09T13:35:59;8.32;;;7.43;;
4206;SDS011;2117;47.972;7.830;2023-07-09T13:38:25;9.68;;;8.35;;
4206;SDS011;2117;47.972;7.830;2023-07-09T13:40:51;7.95;;;6.55;;
4206;SDS011;2117;47.972;7.830;2023-07-09T13:43:31;8.57;;;7.00;;
4206;SDS011;2117;47.972;7.830;2023-07-09T13:45:59;8.95;;;7.90;;
4206;SDS011;2117;47.972;7.830;2023-07-09T13:48:28;10.25;;;7.78;;
4206;SDS011;2117;47.972;7.830;2023-07-09T13:50:55;9.93;;;7.38;;
4206;SDS011;2117;47.972;7.830;2023-07-09T13:53:23;8.35;;;7.53;;
4206;SDS011;2117;47.972;7.830;2023-07-09T13:55:52;10.82;;;7.28;;
4206;SDS011;2117;47.972;7.830;2023-07-09T13:58:19;9.60;;;8.10;;
4206;SDS011;2117;47.972;7.830;2023-07-09T14:00:46;8.60;;;7.70;;
4206;SDS011;2117;47.972;7.830;2023-07-09T14:03:21;8.60;;;7.43;;
4206;SDS011;2117;47.972;7.830;2023-07-09T14:05:49;8.88;;;7.88;;
4206;SDS011;2117;47.972;7.830;2023-07-09T14:08:15;8.75;;;7.80;;
4206;SDS011;2117;47.972;7.830;2023-07-09T14:10:42;12.18;;;8.95;;
4206;SDS011;2117;47.972;7.830;2023-07-09T14:13:12;9.68;;;7.20;;
4206;SDS011;2117;47.972;7.830;2023-07-09T14:15:39;8.15;;;7.25;;
4206;SDS011;2117;47.972;7.830;2023-07-09T14:18:05;11.13;;;7.75;;
4206;SDS011;2117;47.972;7.830;2023-07-09T14:20:41;8.85;;;6.95;;
4206;SDS011;2117;47.972;7.830;2023-07-09T14:23:09;10.45;;;8.20;;
4206;SDS011;2117;47.972;7.830;2023-07-09T14:25:36;9.48;;;7.20;;
4206;SDS011;2117;47.972;7.830;2023-07-09T14:28:04;9.20;;;7.60;;
4206;SDS011;2117;47.972;7.830;2023-07-09T14:30:38;11.48;;;8.30;;
4206;SDS011;2117;47.972;7.830;2023-07-09T14:33:07;11.77;;;8.80;;
4206;SDS011;2117;47.972;7.830;2023-07-09T14:35:37;8.75;;;7.97;;
4206;SDS011;2117;47.972;7.830;2023-07-09T14:38:03;8.10;;;7.22;;
4206;SDS011;2117;47.972;7.830;2023-07-09T14:40:39;8.32;;;7.05;;
4206;SDS011;2117;47.972;7.830;2023-07-09T14:43:04;7.93;;;7.13;;
4206;SDS011;2117;47.972;7.830;2023-07-09T14:45:34;13.07;;;8.80;;
4206;SDS011;2117;47.972;7.830;2023-07-09T14:47:59;8.43;;;7.53;;
4206;SDS011;2117;47.972;7.830;2023-07-09T14:50:25;9.85;;;6.95;;
4206;SDS011;2117;47.972;7.830;2023-07-09T14:52:51;12.77;;;7.97;;
4206;SDS011;2117;47.972;7.830;2023-07-09T14:55:18;10.30;;;7.93;;
4206;SDS011;2117;47.972;7.830;2023-07-09T14:57:46;7.88;;;7.07;;
4206;SDS011;2117;47.972;7.830;2023-07-09T15:00:16;8.98;;;8.13;;
4206;SDS011;2117;47.972;7.830;2023-07-09T15:02:44;10.98;;;8.25;;
4206;SDS011;2117;47.972;7.830;2023-07-09T15:05:12;8.40;;;7.28;;
4206;SDS011;2117;47.972;7.830;2023-07-09T15:07:43;8.18;;;7.18;;
4206;SDS011;2117;47.972;7.830;2023-07-09T15:10:14;9.60;;;6.97;;
4206;SDS011;2117;47.972;7.830;2023-07-09T15:12:42;13.32;;;7.57;;
4206;SDS011;2117;47.972;7.830;2023-07-09T15:15:13;8.80;;;7.38;;
4206;SDS011;2117;47.972;7.830;2023-07-09T15:17:46;8.10;;;7.18;;
4206;SDS011;2117;47.972;7.830;2023-07-09T15:20:33;8.93;;;7.40;;
4206;SDS011;2117;47.972;7.830;2023-07-09T15:22:58;8.27;;;7.15;;
4206;SDS011;2117;47.972;7.830;2023-07-09T15:25:25;8.82;;;7.47;;
4206;SDS011;2117;47.972;7.830;2023-07-09T15:27:52;8.93;;;7.53;;
4206;SDS011;2117;47.972;7.830;2023-07-09T15:30:21;7.60;;;6.82;;
4206;SDS011;2117;47.972;7.830;2023-07-09T15:32:49;12.55;;;7.93;;
4206;SDS011;2117;47.972;7.830;2023-07-09T15:35:17;7.60;;;6.53;;
4206;SDS011;2117;47.972;7.830;2023-07-09T15:37:43;11.73;;;7.00;;
4206;SDS011;2117;47.972;7.830;2023-07-09T15:40:17;8.95;;;6.72;;
4206;SDS011;2117;47.972;7.830;2023-07-09T15:42:48;9.32;;;7.72;;
4206;SDS011;2117;47.972;7.830;2023-07-09T15:45:16;8.45;;;6.47;;
4206;SDS011;2117;47.972;7.830;2023-07-09T15:47:42;10.40;;;6.72;;
4206;SDS011;2117;47.972;7.830;2023-07-09T15:50:16;12.23;;;8.02;;
4206;SDS011;2117;47.972;7.830;2023-07-09T15:52:45;8.50;;;6.75;;
4206;SDS011;2117;47.972;7.830;2023-07-09T15:55:18;16.85;;;7.10;;
4206;SDS011;2117;47.972;7.830;2023-07-09T15:57:47;15.15;;;6.75;;
4206;SDS011;2117;47.972;7.830;2023-07-09T16:00:18;8.85;;;6.03;;
4206;SDS011;2117;47.972;7.830;2023-07-09T16:02:47;11.38;;;6.15;;
4206;SDS011;2117;47.972;7.830;2023-07-09T16:05:24;8.65;;;6.38;;
4206;SDS011;2117;47.972;7.830;2023-07-09T16:07:55;9.82;;;6.50;;
4206;SDS011;2117;47.972;7.830;2023-07-09T16:10:23;11.15;;;6.68;;
4206;SDS011;2117;47.972;7.830;2023-07-09T16:12:50;7.57;;;6.57;;
4206;SDS011;2117;47.972;7.830;2023-07-09T16:15:20;9.13;;;6.28;;
4206;SDS011;2117;47.972;7.830;2023-07-09T16:17:48;6.40;;;5.53;;
4206;SDS011;2117;47.972;7.830;2023-07-09T16:20:15;11.32;;;6.30;;
4206;SDS011;2117;47.972;7.830;2023-07-09T16:22:43;9.20;;;5.28;;
4206;SDS011;2117;47.972;7.830;2023-07-09T16:25:14;8.52;;;6.35;;
4206;SDS011;2117;47.972;7.830;2023-07-09T16:27:53;9.57;;;5.20;;
4206;SDS011;2117;47.972;7.830;2023-07-09T16:30:20;12.13;;;6.45;;
4206;SDS011;2117;47.972;7.830;2023-07-09T16:32:49;7.53;;;5.53;;
4206;SDS011;2117;47.972;7.830;2023-07-09T16:35:16;11.88;;;5.78;;
4206;SDS011;2117;47.972;7.830;2023-07-09T16:37:46;8.73;;;5.78;;
4206;SDS011;2117;47.972;7.830;2023-07-09T16:42:47;10.05;;;6.20;;
4206;SDS011;2117;47.972;7.830;2023-07-09T16:45:14;12.68;;;6.95;;
4206;SDS011;2117;47.972;7.830;2023-07-09T16:47:42;10.70;;;6.53;;
4206;SDS011;2117;47.972;7.830;2023-07-09T16:50:18;10.85;;;5.82;;
4206;SDS011;2117;47.972;7.830;2023-07-09T16:52:46;8.95;;;6.32;;
4206;SDS011;2117;47.972;7.830;2023-07-09T16:55:17;9.52;;;5.82;;
4206;SDS011;2117;47.972;7.830;2023-07-09T16:57:45;7.55;;;5.72;;
4206;SDS011;2117;47.972;7.830;2023-07-09T17:02:53;11.82;;;6.40;;